Time;durP1;ratioP1;P1;durP2;ratioP2;P2;SDS_P1;SDS_P2;PMS_P1;PMS_P2;Temp;Humidity;BMP_temperature;BMP_pressure;BME280_temperature;BME280_humidity;BME280_pressure;Samples;Min_cycle;Max_cycle;Signal;HPM_P1;HPM_P2
2023/03/26 00:00:15;;;;;;;5.93;1.85;;;;;;;8.76;85.41;99434.75;5073567;28;20049;-62
2023/03/26 00:02:44;;;;;;;5.45;2.05;;;;;;;8.72;85.03;99439.31;5073521;28;20048;-62
2023/03/26 00:05:16;;;;;;;5.70;2.65;;;;;;;8.77;84.80;99433.59;5073550;28;20048;-62
2023/03/26 00:07:43;;;;;;;8.15;2.40;;;;;;;8.78;84.35;99442.72;5073484;28;20060;-61
2023/03/26 00:10:14;;;;;;;7.50;2.55;;;;;;;8.83;84.49;99448.13;5073321;28;20052;-61
2023/03/26 00:12:43;;;;;;;8.02;2.90;;;;;;;8.86;84.22;99439.97;5073028;28;20451;-61
2023/03/26 00:15:13;;;;;;;11.57;3.38;;;;;;;8.87;83.95;99449.09;5073087;28;20063;-62
2023/03/26 00:17:45;;;;;;;8.18;3.15;;;;;;;8.97;85.42;99445.19;5073411;28;20492;-62
2023/03/26 00:20:13;;;;;;;10.32;3.95;;;;;;;9.02;85.01;99436.66;5072922;28;20048;-61
2023/03/26 00:22:44;;;;;;;14.18;4.00;;;;;;;9.07;84.78;99444.81;5072952;28;20057;-61
2023/03/26 00:25:12;;;;;;;17.17;4.75;;;;;;;9.13;85.23;99440.72;5073294;28;20060;-61
2023/03/26 00:27:48;;;;;;;13.13;4.00;;;;;;;9.22;85.66;99435.13;5072949;28;20049;-61
2023/03/26 00:30:18;;;;;;;9.55;4.05;;;;;;;9.25;84.51;99440.06;5072721;28;20493;-61
2023/03/26 00:32:45;;;;;;;;;;;;;;;9.25;85.42;99429.75;5073402;28;20053;-61
2023/03/26 00:35:13;;;;;;;13.90;4.28;;;;;;;9.25;84.13;99438.09;5073221;28;19920;-61
2023/03/26 00:37:41;;;;;;;14.35;3.90;;;;;;;9.26;84.35;99431.41;5072644;28;20489;-61
2023/03/26 00:40:10;;;;;;;20.27;6.28;;;;;;;9.35;83.82;99425.81;5072769;28;20059;-61
2023/03/26 00:42:39;;;;;;;18.80;4.93;;;;;;;9.37;84.62;99423.50;5073065;28;20056;-61
2023/03/26 00:45:09;;;;;;;14.13;4.20;;;;;;;9.38;84.00;99421.53;5072729;28;20067;-61
2023/03/26 00:47:36;;;;;;;13.90;4.43;;;;;;;9.37;83.71;99415.16;5072442;28;20052;-61
2023/03/26 00:50:05;;;;;;;18.80;5.35;;;;;;;9.45;85.06;99419.03;5072760;28;20481;-61
2023/03/26 00:52:32;;;;;;;19.30;4.90;;;;;;;9.46;85.03;99418.72;5072643;28;20603;-61
2023/03/26 00:55:05;;;;;;;14.95;4.70;;;;;;;9.51;83.56;99415.78;5072338;28;20409;-61
2023/03/26 00:57:32;;;;;;;18.98;4.72;;;;;;;9.47;83.94;99413.97;5072637;28;20049;-61
2023/03/26 01:00:15;;;;;;;15.32;4.80;;;;;;;9.47;83.04;99412.03;5072480;28;20059;-61
2023/03/26 01:02:45;;;;;;;23.73;5.40;;;;;;;9.56;84.17;99412.00;5072570;28;20059;-61
2023/03/26 01:05:47;;;;;;;17.77;4.22;;;;;;;9.56;83.88;99412.00;5072659;28;20061;-61
2023/03/26 01:08:27;;;;;;;21.08;4.90;;;;;;;9.50;82.93;99400.22;5070987;28;20493;-61
2023/03/26 01:11:12;;;;;;;18.30;4.65;;;;;;;9.46;81.94;99401.25;5071875;28;20453;-62
2023/03/26 01:13:42;;;;;;;15.60;4.63;;;;;;;9.54;82.36;99392.06;5072551;28;20056;-61
2023/03/26 01:16:25;;;;;;;20.20;5.15;;;;;;;9.54;82.72;99394.81;5072129;28;20052;-62
2023/03/26 01:19:00;;;;;;;19.83;5.05;;;;;;;9.48;83.24;99387.81;5072202;28;20059;-61
2023/03/26 01:21:33;;;;;;;19.23;4.82;;;;;;;9.47;81.53;99387.00;5072750;28;20071;-62
2023/03/26 01:24:03;;;;;;;27.52;5.45;;;;;;;9.44;82.17;99375.75;5072607;28;20057;-62
2023/03/26 01:26:43;;;;;;;21.65;5.70;;;;;;;9.46;82.01;99379.00;5072693;28;20052;-61
2023/03/26 01:29:20;;;;;;;26.42;5.40;;;;;;;9.47;81.28;99373.13;5072314;28;20045;-61
2023/03/26 01:31:59;;;;;;;15.63;4.80;;;;;;;9.49;81.62;99372.75;5072595;28;20415;-62
2023/03/26 01:34:41;;;;;;;21.25;4.72;;;;;;;9.50;81.83;99374.41;5072153;28;20052;-62
2023/03/26 01:37:19;;;;;;;19.92;4.80;;;;;;;9.49;81.47;99367.19;5072400;28;20060;-62
2023/03/26 01:40:06;;;;;;;23.67;4.70;;;;;;;9.53;81.50;99373.72;5072157;28;20052;-62
2023/03/26 01:42:41;;;;;;;20.63;5.20;;;;;;;9.55;81.41;99365.88;5072374;28;20060;-63
2023/03/26 01:45:24;;;;;;;20.63;4.90;;;;;;;9.53;80.70;99370.94;5072208;28;20056;-62
2023/03/26 01:48:01;;;;;;;22.83;5.60;;;;;;;9.49;80.46;99362.47;5072338;28;20045;-61
2023/03/26 01:50:34;;;;;;;18.42;4.80;;;;;;;9.51;79.97;99364.91;5072424;28;20234;-62
2023/03/26 01:53:04;;;;;;;22.15;5.57;;;;;;;9.54;80.74;99361.47;5072019;28;20052;-62
2023/03/26 01:55:48;;;;;;;;;;;;;;;9.51;79.38;99359.34;5072375;28;20055;-62
2023/03/26 01:58:30;;;;;;;17.73;4.47;;;;;;;9.57;79.51;99351.63;5072170;28;19921;-62
2023/03/26 02:01:17;;;;;;;22.48;5.53;;;;;;;9.61;79.39;99358.97;5072027;28;20052;-62
2023/03/26 02:03:50;;;;;;;23.98;5.13;;;;;;;9.62;79.89;99357.03;5071757;28;21156;-62
2023/03/26 02:06:29;;;;;;;18.67;5.43;;;;;;;9.64;80.20;99351.91;5072445;28;20052;-62
2023/03/26 02:09:06;;;;;;;21.60;5.20;;;;;;;9.65;79.42;99342.44;5072321;28;20049;-62
2023/03/26 02:11:40;;;;;;;18.52;5.18;;;;;;;9.66;79.97;99349.63;5072387;28;20056;-62
2023/03/26 02:14:09;;;;;;;20.23;5.28;;;;;;;9.69;79.67;99344.22;5075584;28;20052;-62
2023/03/26 02:16:38;;;;;;;17.80;4.80;;;;;;;9.65;79.48;99337.69;5075525;28;20059;-62
2023/03/26 02:19:14;;;;;;;21.90;5.63;;;;;;;9.65;77.82;99334.91;5075308;28;20052;-65
2023/03/26 02:21:44;;;;;;;24.42;6.30;;;;;;;9.63;78.68;99323.31;5075537;28;20497;-62
2023/03/26 02:24:12;;;;;;;;;;;;;;;9.69;78.69;99321.97;5076324;28;20060;-63
2023/03/26 02:26:41;;;;;;;18.08;5.07;;;;;;;9.70;78.38;99323.59;5075703;28;19925;-62
2023/03/26 02:29:09;;;;;;;25.73;4.82;;;;;;;9.66;77.58;99325.44;5075096;28;20056;-62
2023/03/26 02:31:37;;;;;;;22.88;5.53;;;;;;;9.65;78.45;99318.22;5075312;28;20052;-61
2023/03/26 02:34:04;;;;;;;21.25;4.78;;;;;;;9.74;79.41;99321.78;5075232;28;20505;-62
2023/03/26 02:36:31;;;;;;;18.17;4.57;;;;;;;9.74;79.18;99307.03;5075123;28;20055;-62
2023/03/26 02:38:59;;;;;;;22.58;5.07;;;;;;;9.74;79.64;99299.53;5074704;28;20063;-62
2023/03/26 02:41:26;;;;;;;22.45;5.28;;;;;;;9.73;79.21;99300.66;5074653;28;20060;-62
2023/03/26 02:43:54;;;;;;;22.17;5.18;;;;;;;9.79;79.69;99289.38;5074677;28;20389;-62
2023/03/26 02:46:22;;;;;;;22.95;5.38;;;;;;;9.73;79.25;99295.13;5075028;28;20048;-62
2023/03/26 02:48:49;;;;;;;18.50;4.38;;;;;;;9.77;79.26;99292.47;5074865;28;20056;-62
2023/03/26 02:51:17;;;;;;;24.67;4.82;;;;;;;9.68;78.58;99294.47;5074955;28;20059;-62
2023/03/26 02:53:44;;;;;;;21.92;5.53;;;;;;;9.74;79.49;99288.41;5074825;28;20481;-62
2023/03/26 02:56:12;;;;;;;20.42;4.80;;;;;;;9.76;79.52;99288.06;5074397;28;20048;-62
2023/03/26 02:58:39;;;;;;;22.55;5.03;;;;;;;9.73;78.15;99283.19;5074439;28;20052;-62
2023/03/26 03:01:08;;;;;;;18.25;5.32;;;;;;;9.74;78.78;99282.00;5074462;28;20048;-61
2023/03/26 03:03:36;;;;;;;19.10;5.90;;;;;;;9.75;79.16;99280.88;5074604;28;20097;-62
2023/03/26 03:06:03;;;;;;;20.95;5.40;;;;;;;9.75;77.99;99281.69;5074326;28;20059;-62
2023/03/26 03:08:32;;;;;;;17.90;4.90;;;;;;;9.80;78.35;99275.09;5074358;28;20052;-62
2023/03/26 03:11:01;;;;;;;20.70;4.70;;;;;;;9.85;78.44;99279.63;5073720;28;20060;-62
2023/03/26 03:13:29;;;;;;;20.23;5.50;;;;;;;9.85;78.30;99274.91;5074248;28;20044;-62
2023/03/26 03:15:56;;;;;;;25.13;4.85;;;;;;;9.92;79.58;99274.38;5074386;28;20059;-62
2023/03/26 03:18:25;;;;;;;22.75;4.93;;;;;;;9.90;78.14;99265.56;5074103;28;20052;-63
2023/03/26 03:20:52;;;;;;;23.02;5.18;;;;;;;9.84;78.40;99264.13;5074579;28;20469;-62
2023/03/26 03:23:20;;;;;;;26.33;5.20;;;;;;;9.79;79.54;99254.03;5072926;28;20493;-62
2023/03/26 03:25:47;;;;;;;24.17;5.43;;;;;;;9.63;79.23;99251.03;5074465;28;20056;-62
2023/03/26 03:28:18;;;;;;;24.65;5.68;;;;;;;9.76;79.17;99243.56;5074094;28;20051;-62
2023/03/26 03:30:45;;;;;;;28.67;5.20;;;;;;;9.77;79.42;99244.41;5074342;28;20056;-62
2023/03/26 03:33:15;;;;;;;20.65;4.72;;;;;;;9.74;79.78;99238.34;5074051;28;20053;-62
2023/03/26 03:35:44;;;;;;;22.17;5.25;;;;;;;9.68;79.82;99230.53;5074058;28;20056;-62
2023/03/26 03:38:12;;;;;;;19.60;4.85;;;;;;;9.65;79.96;99226.47;5074053;28;20052;-62
2023/03/26 03:40:39;;;;;;;19.67;4.75;;;;;;;9.54;78.86;99236.38;5074120;28;20402;-62
2023/03/26 03:43:06;;;;;;;21.00;4.63;;;;;;;9.41;79.91;99229.09;5073933;28;20060;-62
2023/03/26 03:45:33;;;;;;;21.15;4.90;;;;;;;9.45;80.69;99216.16;5073528;28;20395;-62
2023/03/26 03:48:03;;;;;;;21.55;4.65;;;;;;;9.35;79.17;99214.59;5073546;28;20078;-62
2023/03/26 03:50:31;;;;;;;19.83;4.60;;;;;;;9.33;80.76;99220.50;5073922;28;20079;-62
2023/03/26 03:53:00;;;;;;;23.20;4.40;;;;;;;9.32;79.75;99218.88;5073689;28;20053;-62
2023/03/26 03:55:27;;;;;;;26.30;5.22;;;;;;;9.26;79.63;99223.00;5073771;28;20480;-62
2023/03/26 03:57:55;;;;;;;19.70;4.40;;;;;;;9.20;79.84;99223.50;5073091;28;20055;-61
2023/03/26 04:00:23;;;;;;;15.30;4.13;;;;;;;9.21;80.04;99217.63;5073681;28;20063;-62
2023/03/26 04:02:53;;;;;;;24.55;5.25;;;;;;;9.22;80.32;99219.25;5073531;28;20067;-62
2023/03/26 04:05:21;;;;;;;18.63;4.30;;;;;;;9.18;79.67;99207.19;5073590;28;20056;-62
2023/03/26 04:07:49;;;;;;;20.65;4.80;;;;;;;9.19;79.35;99214.38;5073399;28;20097;-62
2023/03/26 04:10:17;;;;;;;22.35;5.10;;;;;;;9.27;80.86;99215.47;5073542;28;20052;-62
2023/03/26 04:12:44;;;;;;;23.23;5.28;;;;;;;9.29;79.01;99210.41;5072870;28;20053;-62
2023/03/26 04:15:12;;;;;;;19.65;6.18;;;;;;;9.29;79.97;99208.41;5073420;28;20063;-62
2023/03/26 04:17:41;;;;;;;18.20;4.55;;;;;;;9.33;79.89;99203.00;5073207;28;20401;-62
2023/03/26 04:20:13;;;;;;;23.70;4.05;;;;;;;9.42;79.34;99198.19;5073279;28;20055;-62
2023/03/26 04:22:41;;;;;;;18.42;5.43;;;;;;;9.39;78.94;99195.31;5072913;28;20079;-62
2023/03/26 04:25:09;;;;;;;16.85;4.05;;;;;;;9.47;78.63;99194.41;5073266;28;20056;-62
2023/03/26 04:27:41;;;;;;;20.33;3.92;;;;;;;9.53;79.29;99179.97;5073111;28;20501;-62
2023/03/26 04:30:14;;;;;;;21.92;4.22;;;;;;;9.60;78.69;99179.44;5073244;28;20406;-61
2023/03/26 04:32:41;;;;;;;15.88;4.38;;;;;;;9.69;79.92;99176.56;5072803;28;20509;-61
2023/03/26 04:35:13;;;;;;;17.70;4.03;;;;;;;9.68;79.47;99170.22;5072832;28;20048;-62
2023/03/26 04:37:43;;;;;;;19.23;4.10;;;;;;;9.79;78.61;99167.00;5072644;28;20060;-61
2023/03/26 04:40:14;;;;;;;14.85;4.03;;;;;;;9.77;79.33;99161.78;5072994;28;20064;-61
2023/03/26 04:42:44;;;;;;;15.57;4.05;;;;;;;9.75;77.90;99158.53;5072836;28;20508;-61
2023/03/26 04:45:13;;;;;;;17.27;4.53;;;;;;;9.80;77.65;99154.72;5072996;28;20052;-62
2023/03/26 04:47:40;;;;;;;16.63;4.32;;;;;;;9.89;77.93;99150.72;5072568;28;20053;-62
2023/03/26 04:50:10;;;;;;;21.17;4.45;;;;;;;9.92;78.57;99146.44;5072927;28;20496;-61
2023/03/26 04:52:38;;;;;;;20.15;4.40;;;;;;;9.90;79.04;99143.16;5072797;28;20056;-62
2023/03/26 04:55:15;;;;;;;15.38;3.88;;;;;;;9.91;78.34;99147.56;5072856;28;20052;-62
2023/03/26 04:57:47;;;;;;;23.25;5.22;;;;;;;9.87;78.43;99133.56;5072557;28;20063;-62
2023/03/26 05:00:18;;;;;;;21.20;4.63;;;;;;;9.85;78.02;99132.25;5072816;28;20052;-61
2023/03/26 05:02:48;;;;;;;16.25;4.07;;;;;;;9.77;77.87;99133.16;5072492;28;20048;-61
2023/03/26 05:05:16;;;;;;;12.77;3.75;;;;;;;9.75;77.80;99128.75;5072663;28;20057;-61
2023/03/26 05:07:43;;;;;;;16.60;4.07;;;;;;;9.72;77.70;99123.88;5072568;28;20080;-62
2023/03/26 05:10:13;;;;;;;16.92;4.65;;;;;;;9.73;78.90;99131.06;5072678;28;20071;-62
2023/03/26 05:12:40;;;;;;;;;;;;;;;9.66;76.81;99128.03;5072690;28;20803;-62
2023/03/26 05:15:11;;;;;;;20.40;4.72;;;;;;;9.72;78.60;99115.53;5072558;28;19927;-62
2023/03/26 05:17:40;;;;;;;19.90;5.78;;;;;;;9.69;78.62;99116.22;5072525;28;20068;-61
2023/03/26 05:20:15;;;;;;;18.77;4.90;;;;;;;9.72;78.32;99118.31;5072822;28;20057;-62
2023/03/26 05:22:42;;;;;;;17.05;4.68;;;;;;;9.79;78.76;99108.63;5072551;28;20482;-61
2023/03/26 05:25:10;;;;;;;15.65;4.68;;;;;;;9.79;77.64;99106.63;5072513;28;20059;-62
2023/03/26 05:27:38;;;;;;;17.48;4.13;;;;;;;9.78;76.73;99104.19;5072151;28;20056;-62
2023/03/26 05:30:07;;;;;;;13.77;4.95;;;;;;;9.77;77.22;99102.59;5072427;28;20052;-63
2023/03/26 05:32:36;;;;;;;17.52;4.20;;;;;;;9.82;77.68;99107.91;5072606;28;20500;-62
2023/03/26 05:35:04;;;;;;;18.02;4.93;;;;;;;9.89;78.09;99095.09;5072370;28;20056;-62
2023/03/26 05:37:31;;;;;;;17.98;3.70;;;;;;;9.95;78.38;99095.66;5072043;28;20056;-62
2023/03/26 05:39:59;;;;;;;21.38;5.03;;;;;;;10.00;78.43;99092.66;5072436;28;20056;-62
2023/03/26 05:42:26;;;;;;;19.58;4.63;;;;;;;10.08;77.91;99088.97;5072154;28;20071;-62
2023/03/26 05:44:54;;;;;;;19.92;4.78;;;;;;;10.15;78.90;99086.44;5072227;28;20048;-62
2023/03/26 05:47:21;;;;;;;16.73;4.22;;;;;;;10.23;78.47;99095.03;5073830;28;20405;-62
2023/03/26 05:49:50;;;;;;;11.65;4.38;;;;;;;10.26;78.20;99091.53;5076048;28;20048;-62
2023/03/26 05:52:17;;;;;;;15.45;4.18;;;;;;;10.27;76.47;99080.06;5075868;28;20057;-62
2023/03/26 05:54:45;;;;;;;16.15;3.10;;;;;;;10.37;77.66;99073.25;5075943;28;20056;-63
2023/03/26 05:57:12;;;;;;;14.32;3.95;;;;;;;10.33;76.66;99078.72;5075501;28;20048;-62
2023/03/26 05:59:40;;;;;;;18.15;3.90;;;;;;;10.23;74.66;99067.22;5075890;28;20053;-62
2023/03/26 06:02:08;;;;;;;13.75;3.72;;;;;;;10.19;75.45;99067.06;5075587;28;20052;-62
2023/03/26 06:04:39;;;;;;;12.63;3.75;;;;;;;10.28;75.89;99061.41;5075724;28;20060;-62
2023/03/26 06:07:10;;;;;;;12.65;3.38;;;;;;;10.30;76.06;99061.91;5075686;28;20049;-63
2023/03/26 06:09:37;;;;;;;13.20;3.45;;;;;;;10.16;74.71;99059.41;5075806;28;20052;-62
2023/03/26 06:12:06;;;;;;;15.32;4.35;;;;;;;10.13;74.82;99058.13;5074790;28;20052;-62
2023/03/26 06:14:33;;;;;;;16.50;3.67;;;;;;;10.23;75.51;99044.94;5075716;28;20477;-63
2023/03/26 06:17:00;;;;;;;14.82;3.55;;;;;;;10.29;75.66;99037.97;5075612;28;20417;-62
2023/03/26 06:19:28;;;;;;;15.50;4.05;;;;;;;10.31;74.62;99042.06;5075485;28;20071;-62
2023/03/26 06:21:55;;;;;;;14.02;4.03;;;;;;;10.30;74.25;99039.63;5075432;28;20508;-62
2023/03/26 06:24:24;;;;;;;14.10;4.20;;;;;;;10.21;73.89;99033.34;5075201;28;20486;-62
2023/03/26 06:26:51;;;;;;;14.10;3.60;;;;;;;10.12;74.41;99028.72;5075297;28;20048;-62
2023/03/26 06:29:18;;;;;;;9.18;2.80;;;;;;;10.20;75.20;99038.06;5075177;28;20049;-62
2023/03/26 06:31:46;;;;;;;12.73;3.15;;;;;;;10.19;75.11;99028.13;5074919;28;20052;-62
2023/03/26 06:34:13;;;;;;;20.15;3.92;;;;;;;10.15;74.86;99025.22;5074733;28;20063;-62
2023/03/26 06:36:40;;;;;;;12.52;3.13;;;;;;;10.15;74.66;99016.88;5075043;28;20052;-62
2023/03/26 06:39:08;;;;;;;11.65;3.28;;;;;;;10.09;75.33;99021.03;5074742;28;20048;-62
2023/03/26 06:41:36;;;;;;;16.88;3.38;;;;;;;10.11;75.45;99024.28;5074703;28;20052;-62
2023/03/26 06:44:03;;;;;;;13.52;3.15;;;;;;;10.16;75.69;99020.44;5074881;28;20079;-62
2023/03/26 06:46:31;;;;;;;15.38;3.60;;;;;;;10.26;76.99;99020.00;5074777;28;20060;-62
2023/03/26 06:48:58;;;;;;;14.65;3.22;;;;;;;10.36;77.18;99024.31;5074599;28;20044;-62
2023/03/26 06:51:25;;;;;;;12.75;3.28;;;;;;;10.42;77.47;99025.72;5074594;28;20059;-63
2023/03/26 06:53:52;;;;;;;14.05;3.38;;;;;;;10.49;77.97;99028.72;5074523;28;20398;-62
2023/03/26 06:56:20;;;;;;;13.23;3.20;;;;;;;10.42;77.92;99022.13;5074574;28;20056;-62
2023/03/26 06:58:48;;;;;;;12.90;3.47;;;;;;;10.47;76.68;99021.88;5073939;28;20139;-62
2023/03/26 07:01:16;;;;;;;14.02;3.63;;;;;;;10.50;77.31;99024.78;5074767;28;20496;-62
2023/03/26 07:03:43;;;;;;;11.95;3.53;;;;;;;10.60;76.90;99025.47;5074245;28;20059;-64
2023/03/26 07:06:10;;;;;;;9.27;2.92;;;;;;;10.67;76.92;99028.47;5074483;28;20055;-63
2023/03/26 07:08:37;;;;;;;13.80;3.30;;;;;;;10.59;76.38;99029.41;5074501;28;20049;-62
2023/03/26 07:11:05;;;;;;;12.88;3.25;;;;;;;10.59;77.19;99013.50;5074276;28;20056;-63
2023/03/26 07:13:32;;;;;;;13.07;3.10;;;;;;;10.55;76.09;99018.16;5073953;28;20056;-62
2023/03/26 07:16:01;;;;;;;13.02;3.28;;;;;;;10.44;76.82;99015.03;5074428;28;20409;-62
2023/03/26 07:18:28;;;;;;;9.23;2.88;;;;;;;10.51;77.00;99011.66;5074261;28;20521;-62
2023/03/26 07:20:56;;;;;;;14.77;3.92;;;;;;;10.56;77.11;99015.03;5074100;28;20517;-63
2023/03/26 07:23:24;;;;;;;13.70;3.72;;;;;;;10.49;76.84;99008.41;5074069;28;20056;-63
2023/03/26 07:25:52;;;;;;;10.88;3.50;;;;;;;10.61;76.99;99004.81;5074107;28;20135;-63
2023/03/26 07:28:25;;;;;;;14.23;4.00;;;;;;;10.65;77.56;98995.41;5074041;28;20068;-62
2023/03/26 07:31:06;;;;;;;13.77;3.10;;;;;;;10.73;77.98;98997.25;5074087;28;20075;-63
2023/03/26 07:33:40;;;;;;;15.27;3.30;;;;;;;10.75;77.59;98988.53;5073405;28;20083;-62
2023/03/26 07:36:17;;;;;;;14.23;3.03;;;;;;;10.81;77.69;98984.31;5073983;28;20068;-64
2023/03/26 07:39:06;;;;;;;13.65;3.05;;;;;;;10.82;77.61;98976.81;5073858;28;20059;-63
2023/03/26 07:41:42;;;;;;;17.73;3.50;;;;;;;10.81;77.60;98981.53;5073873;28;20063;-63
2023/03/26 07:44:29;;;;;;;9.43;2.75;;;;;;;10.86;77.64;98975.75;5073558;28;20052;-63
2023/03/26 07:47:03;;;;;;;17.65;4.20;;;;;;;10.90;77.49;98975.84;5073464;28;20400;-63
2023/03/26 07:49:31;;;;;;;10.98;2.75;;;;;;;10.94;78.01;98974.78;5073662;28;20055;-63
2023/03/26 07:52:00;;;;;;;11.90;3.10;;;;;;;11.03;77.68;98969.06;5073533;28;20056;-63
2023/03/26 07:54:27;;;;;;;15.90;3.95;;;;;;;11.05;77.05;98968.72;5073381;28;20057;-63
2023/03/26 07:56:59;;;;;;;11.50;3.17;;;;;;;11.09;76.77;98972.41;5073532;28;20383;-63
2023/03/26 07:59:31;;;;;;;11.50;3.13;;;;;;;11.23;77.29;98970.00;5073424;28;20152;-63
2023/03/26 08:02:26;;;;;;;10.90;3.13;;;;;;;11.34;77.78;98959.97;5073496;28;20061;-63
2023/03/26 08:05:09;;;;;;;13.52;3.15;;;;;;;11.47;77.68;98957.13;5073586;28;20060;-64
2023/03/26 08:07:51;;;;;;;14.88;4.00;;;;;;;11.53;77.37;98961.28;5073364;28;20434;-64
2023/03/26 08:10:26;;;;;;;16.33;3.60;;;;;;;11.63;77.44;98952.34;5072479;28;20052;-64
2023/03/26 08:12:59;;;;;;;12.90;3.78;;;;;;;11.73;77.90;98953.81;5072798;28;20053;-63
2023/03/26 08:15:31;;;;;;;12.70;3.05;;;;;;;11.83;77.51;98952.47;5073254;28;20048;-64
2023/03/26 08:18:11;;;;;;;9.20;3.28;;;;;;;11.89;77.47;98937.09;5072776;28;20052;-63
2023/03/26 08:20:46;;;;;;;14.13;3.65;;;;;;;11.98;77.90;98946.91;5073388;28;20071;-64
2023/03/26 08:23:19;;;;;;;12.75;3.72;;;;;;;12.06;77.29;98938.72;5072770;28;20071;-64
2023/03/26 08:25:54;;;;;;;15.88;5.05;;;;;;;12.12;76.75;98934.47;5073229;28;20048;-64
2023/03/26 08:28:36;;;;;;;11.73;3.28;;;;;;;12.06;76.04;98938.72;5072934;28;20397;-64
2023/03/26 08:31:04;;;;;;;11.63;3.25;;;;;;;12.11;75.75;98942.00;5073098;28;20056;-64
2023/03/26 08:33:33;;;;;;;12.48;3.88;;;;;;;12.19;75.40;98941.00;5072800;28;20059;-63
2023/03/26 08:36:03;;;;;;;11.25;3.05;;;;;;;12.04;74.34;98936.28;5072569;28;20072;-63
2023/03/26 08:38:30;;;;;;;10.10;3.38;;;;;;;12.17;75.20;98923.00;5072314;28;20063;-63
2023/03/26 08:41:40;;;;;;;16.30;4.72;;;;;;;12.28;74.26;98926.06;5072494;28;20057;-64
2023/03/26 08:44:39;;;;;;;;;;;;;;;12.31;73.13;98926.13;5073115;28;20048;-63
2023/03/26 08:47:43;;;;;;;9.93;3.63;;;;;;;12.41;75.67;98932.31;5072605;28;20297;-63
2023/03/26 08:50:43;;;;;;;14.32;3.67;;;;;;;12.49;75.23;98923.72;5072930;28;20053;-63
2023/03/26 08:53:50;;;;;;;13.85;3.45;;;;;;;12.63;75.29;98920.44;5038463;28;20397;-62
2023/03/26 08:56:24;;;;;;;16.23;3.38;;;;;;;12.66;75.44;98916.94;5072217;28;20049;-64
2023/03/26 08:59:29;;;;;;;9.93;3.22;;;;;;;12.70;75.45;98925.38;5072427;28;20466;-63
2023/03/26 09:02:30;;;;;;;11.80;2.90;;;;;;;12.68;75.20;98919.34;5056593;28;20053;-63
2023/03/26 09:05:23;;;;;;;12.23;3.65;;;;;;;12.69;75.46;98916.19;5070614;28;20048;-63
2023/03/26 09:08:20;;;;;;;9.07;3.10;;;;;;;12.75;74.93;98908.34;5072393;28;20053;-63
2023/03/26 09:11:07;;;;;;;9.70;2.85;;;;;;;12.77;75.06;98919.94;5072717;28;20052;-63
2023/03/26 09:13:53;;;;;;;10.25;3.22;;;;;;;12.81;74.77;98909.66;5072045;28;20067;-63
2023/03/26 09:16:53;;;;;;;12.55;3.80;;;;;;;12.90;75.03;98915.03;5072268;28;20053;-63
2023/03/26 09:19:42;;;;;;;15.52;3.38;;;;;;;12.95;75.23;98907.13;5072092;28;20059;-63
2023/03/26 09:22:39;;;;;;;13.18;3.50;;;;;;;13.05;75.16;98911.31;5073552;28;20056;-63
2023/03/26 09:25:25;;;;;;;9.80;3.25;;;;;;;13.04;74.57;98903.31;5063403;28;20108;-63
2023/03/26 09:28:23;;;;;;;12.20;4.85;;;;;;;12.96;72.84;98905.16;5076230;28;20106;-63
2023/03/26 09:31:18;;;;;;;10.88;4.07;;;;;;;13.01;73.99;98910.44;5076020;28;20055;-63
2023/03/26 09:33:58;;;;;;;11.05;2.95;;;;;;;12.95;74.04;98903.53;5075469;28;20048;-63
2023/03/26 09:36:52;;;;;;;10.98;4.10;;;;;;;12.92;74.22;98901.50;5076208;28;20060;-64
2023/03/26 09:39:37;;;;;;;9.32;3.63;;;;;;;12.86;74.13;98909.34;5071964;28;20052;-63
2023/03/26 09:42:18;;;;;;;11.98;4.53;;;;;;;12.82;74.22;98902.88;5076234;28;20079;-63
2023/03/26 09:45:18;;;;;;;11.35;3.45;;;;;;;12.81;75.31;98884.50;5076061;28;20493;-63
2023/03/26 09:48:18;;;;;;;12.85;3.42;;;;;;;12.81;74.23;98895.69;5075944;28;20064;-62
2023/03/26 09:51:00;;;;;;;9.43;3.40;;;;;;;12.87;75.17;98896.19;5065437;28;20060;-62
2023/03/26 09:53:52;;;;;;;13.00;3.83;;;;;;;12.79;75.43;98895.25;5075953;28;20053;-63
2023/03/26 09:56:32;;;;;;;11.45;3.53;;;;;;;12.76;75.33;98893.19;5075657;28;20057;-62
2023/03/26 09:59:13;;;;;;;14.15;3.70;;;;;;;12.70;74.89;98889.06;5075563;28;20052;-62
2023/03/26 10:01:46;;;;;;;6.95;3.03;;;;;;;12.53;74.52;98885.50;5075680;28;20052;-62
2023/03/26 10:04:50;;;;;;;8.43;2.60;;;;;;;12.39;74.39;98886.03;5075515;28;20477;-63
2023/03/26 10:07:42;;;;;;;6.75;2.42;;;;;;;12.11;73.41;98888.97;5075367;28;20049;-63
2023/03/26 10:10:17;;;;;;;5.95;1.77;;;;;;;12.05;73.13;98884.84;5073081;28;20044;-63
2023/03/26 10:12:51;;;;;;;6.30;1.90;;;;;;;12.04;73.25;98885.25;5075070;28;20417;-63
2023/03/26 10:15:32;;;;;;;4.40;1.60;;;;;;;11.96;72.95;98881.47;5075683;28;20048;-63
2023/03/26 10:18:16;;;;;;;4.82;1.65;;;;;;;11.97;74.44;98883.09;5075591;28;20075;-62
2023/03/26 10:20:56;;;;;;;5.50;1.75;;;;;;;11.78;72.66;98879.03;5075530;28;20048;-63
2023/03/26 10:23:39;;;;;;;5.85;1.60;;;;;;;11.81;73.34;98876.69;5075349;28;20510;-63
2023/03/26 10:26:24;;;;;;;4.05;1.83;;;;;;;11.88;73.97;98879.63;5075013;28;20052;-62
2023/03/26 10:29:15;;;;;;;6.00;1.50;;;;;;;11.89;74.13;98878.50;5074929;28;20048;-62
2023/03/26 10:31:46;;;;;;;6.72;2.08;;;;;;;11.92;74.93;98884.16;5075012;28;20053;-63
2023/03/26 10:34:30;;;;;;;5.22;1.80;;;;;;;11.97;75.10;98885.88;5074613;28;20055;-63
2023/03/26 10:37:07;;;;;;;5.13;1.77;;;;;;;12.01;74.99;98884.00;5074818;28;20056;-63
2023/03/26 10:40:04;;;;;;;5.97;2.28;;;;;;;12.06;75.87;98878.13;5074996;28;20044;-62
2023/03/26 10:42:53;;;;;;;5.22;1.90;;;;;;;12.16;75.20;98877.56;5064601;28;20048;-63
2023/03/26 10:45:36;;;;;;;6.80;2.10;;;;;;;12.23;75.10;98874.09;5074997;28;20049;-62
2023/03/26 10:48:19;;;;;;;5.90;1.90;;;;;;;12.25;74.90;98865.38;5074466;28;20056;-62
2023/03/26 10:50:59;;;;;;;5.90;2.00;;;;;;;12.37;76.04;98873.63;5074905;28;20060;-64
2023/03/26 10:53:34;;;;;;;6.32;2.50;;;;;;;12.46;76.10;98867.81;5074354;28;20048;-62
2023/03/26 10:56:12;;;;;;;7.18;2.50;;;;;;;12.46;75.34;98874.22;5074672;28;20063;-63
2023/03/26 10:58:40;;;;;;;7.60;2.10;;;;;;;12.36;74.24;98874.78;5074464;28;20059;-62
2023/03/26 11:01:15;;;;;;;7.57;2.55;;;;;;;12.27;75.32;98869.41;5074548;28;20049;-62
2023/03/26 11:03:51;;;;;;;3.72;1.52;;;;;;;12.16;76.28;98871.16;5074356;28;20063;-64
2023/03/26 11:06:31;;;;;;;6.35;1.77;;;;;;;12.05;76.25;98870.91;5074196;28;20060;-61
2023/03/26 11:09:07;;;;;;;2.25;1.13;;;;;;;11.72;75.57;98869.31;5074307;28;20470;-64
2023/03/26 11:11:43;;;;;;;5.57;1.40;;;;;;;11.55;77.54;98861.34;5074018;28;20048;-64
2023/03/26 11:14:17;;;;;;;3.30;1.25;;;;;;;11.34;78.65;98865.19;5074338;28;20489;-64
2023/03/26 11:16:57;;;;;;;4.70;1.63;;;;;;;11.05;79.62;98868.41;5074058;28;20059;-64
2023/03/26 11:19:33;;;;;;;3.65;1.23;;;;;;;10.54;81.80;98869.81;5074262;28;20146;-62
2023/03/26 11:22:11;;;;;;;5.70;1.80;;;;;;;10.71;83.39;98868.69;5074299;28;20053;-63
2023/03/26 11:25:00;;;;;;;5.00;1.70;;;;;;;10.90;82.72;98862.44;5074398;28;20056;-63
2023/03/26 11:27:39;;;;;;;3.50;1.27;;;;;;;11.05;81.26;98866.44;5073979;28;20048;-63
2023/03/26 11:30:20;;;;;;;4.97;1.85;;;;;;;11.22;80.64;98868.06;5074274;28;20060;-63
2023/03/26 11:32:52;;;;;;;3.33;1.70;;;;;;;11.44;80.97;98852.69;5074031;28;20412;-62
2023/03/26 11:35:26;;;;;;;2.97;1.80;;;;;;;11.71;80.82;98856.53;5074140;28;20060;-63
2023/03/26 11:38:00;;;;;;;3.17;1.40;;;;;;;11.95;80.71;98854.75;5073557;28;20382;-63
2023/03/26 11:40:33;;;;;;;4.00;1.40;;;;;;;12.15;79.61;98852.78;5074159;28;20055;-63
2023/03/26 11:43:02;;;;;;;3.65;1.58;;;;;;;12.28;78.84;98851.47;5074000;28;20082;-63
2023/03/26 11:45:36;;;;;;;2.83;1.30;;;;;;;12.44;77.81;98851.44;5073005;28;20063;-63
2023/03/26 11:48:08;;;;;;;4.32;1.40;;;;;;;12.66;78.39;98851.84;5073499;28;20056;-63
2023/03/26 11:50:41;;;;;;;3.33;1.27;;;;;;;12.77;76.63;98850.91;5074005;28;20044;-63
2023/03/26 11:53:16;;;;;;;1.80;0.82;;;;;;;12.87;76.12;98849.50;5073797;28;20064;-63
2023/03/26 11:55:50;;;;;;;1.73;0.73;;;;;;;12.88;73.83;98841.94;5074053;28;20053;-63
2023/03/26 11:58:28;;;;;;;2.00;0.70;;;;;;;13.03;73.76;98843.81;5073222;28;20057;-63
2023/03/26 12:00:55;;;;;;;2.10;0.90;;;;;;;13.12;74.18;98835.16;5073249;28;20056;-63
2023/03/26 12:03:23;;;;;;;1.83;0.80;;;;;;;13.18;72.57;98845.66;5073484;28;20516;-63